createdAt,value
2022-08-07T00:00:07.365Z,86.18
2022-08-07T00:05:06.469Z,86.53
2022-08-07T00:10:25.552Z,86.94
2022-08-07T00:15:07.193Z,87.04
2022-08-07T00:20:06.157Z,87.14
2022-08-07T00:25:07.001Z,87.49
2022-08-07T00:30:06.023Z,87.49
2022-08-07T00:35:07.088Z,87.63
2022-08-07T00:40:06.006Z,88.35
2022-08-07T00:45:06.786Z,87.94
2022-08-07T00:50:19.185Z,88.35
2022-08-07T00:55:10.377Z,88.45
2022-08-07T01:00:05.699Z,88.85
2022-08-07T01:05:05.639Z,89.00
2022-08-07T01:10:11.073Z,89.11
2022-08-07T01:15:05.599Z,89.00
2022-08-07T01:20:05.486Z,88.90
2022-08-07T01:25:53.575Z,89.35
2022-08-07T01:30:06.435Z,89.76
2022-08-07T01:35:05.465Z,89.56
2022-08-07T01:40:05.277Z,89.65
2022-08-07T01:45:10.113Z,90.41
2022-08-07T01:50:06.130Z,90.00
2022-08-07T01:55:05.094Z,89.80
2022-08-07T02:00:13.267Z,90.31
2022-08-07T02:05:06.129Z,90.41
2022-08-07T02:10:04.933Z,90.82
2022-08-07T02:15:06.021Z,90.66
2022-08-07T02:20:09.893Z,90.56
2022-08-07T02:25:07.184Z,90.86
2022-08-07T02:30:07.224Z,90.77
2022-08-07T02:35:06.109Z,90.77
2022-08-07T02:40:30.034Z,91.17
2022-08-07T02:45:07.426Z,91.22
2022-08-07T02:50:05.438Z,91.42
2022-08-07T02:55:04.406Z,91.42
2022-08-07T03:00:05.004Z,91.31
2022-08-07T03:05:06.764Z,91.73
2022-08-07T03:10:04.226Z,91.56
2022-08-07T03:15:07.724Z,91.67
2022-08-07T03:20:04.184Z,91.77
2022-08-07T03:25:04.078Z,91.67
2022-08-07T03:30:05.005Z,91.67
2022-08-07T03:35:18.136Z,91.56
2022-08-07T03:40:16.218Z,91.56
2022-08-07T03:45:04.831Z,91.82
2022-08-07T03:50:03.785Z,91.82
2022-08-07T03:55:06.954Z,92.12
2022-08-07T04:00:04.265Z,91.91
2022-08-07T04:05:03.644Z,92.02
2022-08-07T04:10:06.958Z,92.02
2022-08-07T04:15:04.960Z,91.82
2022-08-07T04:20:05.266Z,91.71
2022-08-07T04:25:03.399Z,92.02
2022-08-07T04:30:05.362Z,92.12
2022-08-07T04:35:05.520Z,92.02
2022-08-07T04:40:03.185Z,91.71
2022-08-07T04:45:08.171Z,91.56
2022-08-07T04:50:04.841Z,91.05
2022-08-07T04:55:15.316Z,90.91
2022-08-07T05:00:09.733Z,90.05
2022-08-07T05:05:51.952Z,89.39
2022-08-07T05:10:04.676Z,88.68
2022-08-07T05:15:04.504Z,88.02
2022-08-07T05:20:05.391Z,87.16
2022-08-07T05:25:08.742Z,86.30
2022-08-07T05:30:03.791Z,85.45
2022-08-07T05:35:02.650Z,85.21
2022-08-07T05:40:16.813Z,84.14
2022-08-07T05:45:04.424Z,83.15
2022-08-07T05:50:03.540Z,83.01
2022-08-07T05:55:10.166Z,81.51
2022-08-07T06:00:03.332Z,81.26
2022-08-07T06:05:03.584Z,79.56
2022-08-07T06:10:05.450Z,78.91
2022-08-07T06:15:05.694Z,78.03
2022-08-07T06:20:04.258Z,77.04
2022-08-07T06:25:03.002Z,76.06
2022-08-07T06:30:02.018Z,74.30
2022-08-07T06:35:01.954Z,73.72
2022-08-07T06:40:15.722Z,72.68
2022-08-07T06:45:02.796Z,71.91
2022-08-07T06:50:03.860Z,68.51
2022-08-07T06:55:34.390Z,67.54
2022-08-07T07:00:12.603Z,65.99
2022-08-07T07:05:02.609Z,65.22
2022-08-07T07:10:01.589Z,62.68
2022-08-07T07:15:03.336Z,63.32
2022-08-07T07:20:01.456Z,61.05
2022-08-07T07:25:14.225Z,59.62
2022-08-07T07:30:10.078Z,60.06
2022-08-07T07:35:03.852Z,56.80
2022-08-07T07:40:01.376Z,57.35
2022-08-07T07:45:01.205Z,55.72
2022-08-07T07:50:33.877Z,55.49
2022-08-07T07:55:03.457Z,53.97
2022-08-07T08:00:01.102Z,53.44
2022-08-07T08:05:01.069Z,52.29
2022-08-07T08:10:05.428Z,51.27
2022-08-07T08:15:00.915Z,46.46
2022-08-07T08:20:22.232Z,45.02
2022-08-07T08:25:18.776Z,43.73
2022-08-07T08:30:02.985Z,40.92
2022-08-07T08:35:00.688Z,41.02
2022-08-07T08:40:02.754Z,42.39
2022-08-07T08:45:00.575Z,39.61
2022-08-07T08:50:04.646Z,40.22
2022-08-07T08:55:01.262Z,42.47
2022-08-07T09:00:01.373Z,40.64
